sensor_id;sensor_type;location;lat;lon;timestamp;P1;durP1;ratioP1;P2;durP2;ratioP2
15159;SDS011;7680;48.800;9.680;2023-06-22T00:02:04;12.32;;;11.32;;
15159;SDS011;7680;48.800;9.680;2023-06-22T00:04:37;11.85;;;10.85;;
15159;SDS011;7680;48.800;9.680;2023-06-22T00:07:10;12.68;;;11.40;;
15159;SDS011;7680;48.800;9.680;2023-06-22T00:09:45;11.60;;;10.57;;
15159;SDS011;7680;48.800;9.680;2023-06-22T00:12:18;12.75;;;11.60;;
15159;SDS011;7680;48.800;9.680;2023-06-22T00:14:51;13.55;;;12.18;;
15159;SDS011;7680;48.800;9.680;2023-06-22T00:17:24;11.57;;;10.48;;
15159;SDS011;7680;48.800;9.680;2023-06-22T00:19:57;11.85;;;10.80;;
15159;SDS011;7680;48.800;9.680;2023-06-22T00:22:31;12.02;;;11.02;;
15159;SDS011;7680;48.800;9.680;2023-06-22T00:25:11;12.48;;;11.50;;
15159;SDS011;7680;48.800;9.680;2023-06-22T00:27:44;12.90;;;11.60;;
15159;SDS011;7680;48.800;9.680;2023-06-22T00:30:17;13.07;;;11.85;;
15159;SDS011;7680;48.800;9.680;2023-06-22T00:32:51;13.50;;;12.40;;
15159;SDS011;7680;48.800;9.680;2023-06-22T00:35:25;13.25;;;12.05;;
15159;SDS011;7680;48.800;9.680;2023-06-22T00:38:00;12.80;;;11.70;;
15159;SDS011;7680;48.800;9.680;2023-06-22T00:40:37;13.18;;;11.93;;
15159;SDS011;7680;48.800;9.680;2023-06-22T00:43:10;12.27;;;11.13;;
15159;SDS011;7680;48.800;9.680;2023-06-22T00:45:43;11.48;;;10.48;;
15159;SDS011;7680;48.800;9.680;2023-06-22T00:48:16;12.82;;;11.70;;
15159;SDS011;7680;48.800;9.680;2023-06-22T00:50:50;11.98;;;10.98;;
15159;SDS011;7680;48.800;9.680;2023-06-22T00:53:24;11.82;;;10.70;;
15159;SDS011;7680;48.800;9.680;2023-06-22T00:55:59;11.70;;;10.75;;
15159;SDS011;7680;48.800;9.680;2023-06-22T00:58:34;11.77;;;10.77;;
15159;SDS011;7680;48.800;9.680;2023-06-22T01:01:08;11.63;;;10.52;;
15159;SDS011;7680;48.800;9.680;2023-06-22T01:03:41;12.43;;;11.15;;
15159;SDS011;7680;48.800;9.680;2023-06-22T01:06:15;12.93;;;11.73;;
15159;SDS011;7680;48.800;9.680;2023-06-22T01:09:00;11.77;;;10.77;;
15159;SDS011;7680;48.800;9.680;2023-06-22T01:11:42;12.23;;;11.13;;
15159;SDS011;7680;48.800;9.680;2023-06-22T01:14:20;11.48;;;10.57;;
15159;SDS011;7680;48.800;9.680;2023-06-22T01:16:58;12.25;;;11.13;;
15159;SDS011;7680;48.800;9.680;2023-06-22T01:19:35;12.45;;;11.35;;
15159;SDS011;7680;48.800;9.680;2023-06-22T01:22:17;11.93;;;10.90;;
15159;SDS011;7680;48.800;9.680;2023-06-22T01:24:55;10.98;;;10.13;;
15159;SDS011;7680;48.800;9.680;2023-06-22T01:27:45;12.07;;;11.00;;
15159;SDS011;7680;48.800;9.680;2023-06-22T01:30:30;12.25;;;11.25;;
15159;SDS011;7680;48.800;9.680;2023-06-22T01:33:06;12.95;;;11.85;;
15159;SDS011;7680;48.800;9.680;2023-06-22T01:35:43;11.90;;;10.95;;
15159;SDS011;7680;48.800;9.680;2023-06-22T01:38:17;12.10;;;10.93;;
15159;SDS011;7680;48.800;9.680;2023-06-22T01:40:50;12.90;;;11.80;;
15159;SDS011;7680;48.800;9.680;2023-06-22T01:43:24;12.27;;;11.13;;
15159;SDS011;7680;48.800;9.680;2023-06-22T01:46:00;12.07;;;10.55;;
15159;SDS011;7680;48.800;9.680;2023-06-22T01:48:34;12.77;;;11.63;;
15159;SDS011;7680;48.800;9.680;2023-06-22T01:51:07;12.90;;;11.70;;
15159;SDS011;7680;48.800;9.680;2023-06-22T01:53:40;12.23;;;11.13;;
15159;SDS011;7680;48.800;9.680;2023-06-22T01:56:14;12.50;;;11.48;;
15159;SDS011;7680;48.800;9.680;2023-06-22T01:58:51;11.85;;;10.65;;
15159;SDS011;7680;48.800;9.680;2023-06-22T02:01:36;12.65;;;11.60;;
15159;SDS011;7680;48.800;9.680;2023-06-22T02:04:18;11.88;;;10.70;;
15159;SDS011;7680;48.800;9.680;2023-06-22T02:06:56;12.15;;;10.95;;
15159;SDS011;7680;48.800;9.680;2023-06-22T02:09:32;12.48;;;11.35;;
15159;SDS011;7680;48.800;9.680;2023-06-22T02:12:08;11.70;;;10.60;;
15159;SDS011;7680;48.800;9.680;2023-06-22T02:14:44;13.27;;;12.15;;
15159;SDS011;7680;48.800;9.680;2023-06-22T02:17:19;12.10;;;11.00;;
15159;SDS011;7680;48.800;9.680;2023-06-22T02:19:53;12.13;;;11.07;;
15159;SDS011;7680;48.800;9.680;2023-06-22T02:22:26;12.48;;;11.20;;
15159;SDS011;7680;48.800;9.680;2023-06-22T02:24:59;12.98;;;11.60;;
15159;SDS011;7680;48.800;9.680;2023-06-22T02:27:32;12.00;;;11.00;;
15159;SDS011;7680;48.800;9.680;2023-06-22T02:30:06;12.55;;;11.48;;
15159;SDS011;7680;48.800;9.680;2023-06-22T02:32:42;12.30;;;11.18;;
15159;SDS011;7680;48.800;9.680;2023-06-22T02:35:15;11.80;;;10.80;;
15159;SDS011;7680;48.800;9.680;2023-06-22T02:37:48;12.50;;;11.40;;
15159;SDS011;7680;48.800;9.680;2023-06-22T02:40:23;12.98;;;11.68;;
15159;SDS011;7680;48.800;9.680;2023-06-22T02:42:57;12.55;;;11.40;;
15159;SDS011;7680;48.800;9.680;2023-06-22T02:45:34;11.75;;;10.65;;
15159;SDS011;7680;48.800;9.680;2023-06-22T02:48:08;12.07;;;10.88;;
15159;SDS011;7680;48.800;9.680;2023-06-22T02:50:42;12.10;;;11.02;;
15159;SDS011;7680;48.800;9.680;2023-06-22T02:53:15;11.00;;;10.05;;
15159;SDS011;7680;48.800;9.680;2023-06-22T02:55:48;11.35;;;10.38;;
15159;SDS011;7680;48.800;9.680;2023-06-22T02:58:21;11.48;;;10.32;;
15159;SDS011;7680;48.800;9.680;2023-06-22T03:00:55;12.32;;;11.25;;
15159;SDS011;7680;48.800;9.680;2023-06-22T03:03:30;12.15;;;10.90;;
15159;SDS011;7680;48.800;9.680;2023-06-22T03:06:03;11.10;;;10.05;;
15159;SDS011;7680;48.800;9.680;2023-06-22T03:08:36;12.25;;;11.05;;
15159;SDS011;7680;48.800;9.680;2023-06-22T03:11:09;11.70;;;10.60;;
15159;SDS011;7680;48.800;9.680;2023-06-22T03:13:42;11.25;;;10.25;;
15159;SDS011;7680;48.800;9.680;2023-06-22T03:16:16;13.40;;;12.18;;
15159;SDS011;7680;48.800;9.680;2023-06-22T03:18:51;12.73;;;11.45;;
15159;SDS011;7680;48.800;9.680;2023-06-22T03:21:26;12.68;;;11.43;;
15159;SDS011;7680;48.800;9.680;2023-06-22T03:24:01;12.88;;;11.77;;
15159;SDS011;7680;48.800;9.680;2023-06-22T03:26:34;12.85;;;11.63;;
15159;SDS011;7680;48.800;9.680;2023-06-22T03:29:07;11.90;;;10.80;;
15159;SDS011;7680;48.800;9.680;2023-06-22T03:31:40;12.35;;;11.25;;
15159;SDS011;7680;48.800;9.680;2023-06-22T03:34:15;13.05;;;11.82;;
15159;SDS011;7680;48.800;9.680;2023-06-22T03:36:48;13.30;;;11.80;;
15159;SDS011;7680;48.800;9.680;2023-06-22T03:39:21;13.60;;;12.20;;
15159;SDS011;7680;48.800;9.680;2023-06-22T03:41:54;13.48;;;11.77;;
15159;SDS011;7680;48.800;9.680;2023-06-22T03:44:27;13.70;;;12.30;;
15159;SDS011;7680;48.800;9.680;2023-06-22T03:47:00;13.98;;;12.57;;
15159;SDS011;7680;48.800;9.680;2023-06-22T03:49:35;12.82;;;11.68;;
15159;SDS011;7680;48.800;9.680;2023-06-22T03:52:08;13.02;;;11.75;;
15159;SDS011;7680;48.800;9.680;2023-06-22T03:54:42;13.32;;;12.02;;
15159;SDS011;7680;48.800;9.680;2023-06-22T03:57:15;12.45;;;11.30;;
15159;SDS011;7680;48.800;9.680;2023-06-22T03:59:48;13.02;;;11.57;;
15159;SDS011;7680;48.800;9.680;2023-06-22T04:02:22;12.52;;;11.32;;
15159;SDS011;7680;48.800;9.680;2023-06-22T04:04:57;12.68;;;11.40;;
15159;SDS011;7680;48.800;9.680;2023-06-22T04:07:34;12.35;;;11.15;;
15159;SDS011;7680;48.800;9.680;2023-06-22T04:10:08;12.10;;;11.10;;
15159;SDS011;7680;48.800;9.680;2023-06-22T04:12:43;11.65;;;10.65;;
15159;SDS011;7680;48.800;9.680;2023-06-22T04:15:16;12.02;;;10.93;;
15159;SDS011;7680;48.800;9.680;2023-06-22T04:17:49;14.13;;;11.98;;
15159;SDS011;7680;48.800;9.680;2023-06-22T04:20:24;12.55;;;11.43;;
15159;SDS011;7680;48.800;9.680;2023-06-22T04:23:00;12.27;;;11.05;;
15159;SDS011;7680;48.800;9.680;2023-06-22T04:25:33;12.70;;;11.48;;
15159;SDS011;7680;48.800;9.680;2023-06-22T04:28:06;13.07;;;11.77;;
15159;SDS011;7680;48.800;9.680;2023-06-22T04:30:43;12.27;;;11.18;;
15159;SDS011;7680;48.800;9.680;2023-06-22T04:33:18;13.40;;;12.00;;
15159;SDS011;7680;48.800;9.680;2023-06-22T04:35:53;12.80;;;11.68;;
15159;SDS011;7680;48.800;9.680;2023-06-22T04:38:26;11.75;;;10.65;;
15159;SDS011;7680;48.800;9.680;2023-06-22T04:40:59;11.43;;;10.40;;
15159;SDS011;7680;48.800;9.680;2023-06-22T04:43:34;11.75;;;10.63;;
15159;SDS011;7680;48.800;9.680;2023-06-22T04:46:07;12.60;;;11.32;;
15159;SDS011;7680;48.800;9.680;2023-06-22T04:48:40;13.07;;;11.35;;
15159;SDS011;7680;48.800;9.680;2023-06-22T04:51:15;13.43;;;12.05;;
15159;SDS011;7680;48.800;9.680;2023-06-22T04:53:53;13.05;;;11.75;;
15159;SDS011;7680;48.800;9.680;2023-06-22T04:56:32;12.23;;;10.70;;
15159;SDS011;7680;48.800;9.680;2023-06-22T04:59:05;12.18;;;10.98;;
15159;SDS011;7680;48.800;9.680;2023-06-22T05:01:39;12.43;;;11.18;;
15159;SDS011;7680;48.800;9.680;2023-06-22T05:04:12;11.88;;;10.68;;
15159;SDS011;7680;48.800;9.680;2023-06-22T05:06:47;14.15;;;11.85;;
15159;SDS011;7680;48.800;9.680;2023-06-22T05:09:21;11.90;;;10.68;;
15159;SDS011;7680;48.800;9.680;2023-06-22T05:11:54;12.80;;;11.45;;
15159;SDS011;7680;48.800;9.680;2023-06-22T05:14:29;10.90;;;9.88;;
15159;SDS011;7680;48.800;9.680;2023-06-22T05:17:02;10.95;;;9.82;;
15159;SDS011;7680;48.800;9.680;2023-06-22T05:19:46;11.98;;;10.18;;
15159;SDS011;7680;48.800;9.680;2023-06-22T05:22:21;10.65;;;9.65;;
15159;SDS011;7680;48.800;9.680;2023-06-22T05:24:54;11.65;;;10.50;;
15159;SDS011;7680;48.800;9.680;2023-06-22T05:27:27;10.90;;;9.80;;
15159;SDS011;7680;48.800;9.680;2023-06-22T05:30:00;11.23;;;10.05;;
15159;SDS011;7680;48.800;9.680;2023-06-22T05:32:34;10.60;;;9.60;;
15159;SDS011;7680;48.800;9.680;2023-06-22T05:35:08;11.02;;;9.93;;
15159;SDS011;7680;48.800;9.680;2023-06-22T05:37:43;10.27;;;9.27;;
15159;SDS011;7680;48.800;9.680;2023-06-22T05:40:16;9.95;;;9.02;;
15159;SDS011;7680;48.800;9.680;2023-06-22T05:42:49;10.40;;;9.40;;
15159;SDS011;7680;48.800;9.680;2023-06-22T05:45:22;11.68;;;9.00;;
15159;SDS011;7680;48.800;9.680;2023-06-22T05:47:55;9.23;;;8.32;;
15159;SDS011;7680;48.800;9.680;2023-06-22T05:50:28;9.68;;;8.77;;
15159;SDS011;7680;48.800;9.680;2023-06-22T05:53:03;9.32;;;8.43;;
15159;SDS011;7680;48.800;9.680;2023-06-22T05:55:38;8.63;;;7.82;;
15159;SDS011;7680;48.800;9.680;2023-06-22T05:58:11;8.85;;;7.88;;
15159;SDS011;7680;48.800;9.680;2023-06-22T06:00:45;9.90;;;8.63;;
15159;SDS011;7680;48.800;9.680;2023-06-22T06:03:21;7.97;;;7.28;;
15159;SDS011;7680;48.800;9.680;2023-06-22T06:05:54;9.10;;;8.07;;
15159;SDS011;7680;48.800;9.680;2023-06-22T06:08:29;8.05;;;7.10;;
15159;SDS011;7680;48.800;9.680;2023-06-22T06:11:02;7.95;;;7.28;;
15159;SDS011;7680;48.800;9.680;2023-06-22T06:13:35;7.25;;;6.55;;
15159;SDS011;7680;48.800;9.680;2023-06-22T06:16:08;7.30;;;6.63;;
15159;SDS011;7680;48.800;9.680;2023-06-22T06:18:41;7.22;;;6.53;;
15159;SDS011;7680;48.800;9.680;2023-06-22T06:21:14;7.03;;;6.43;;
15159;SDS011;7680;48.800;9.680;2023-06-22T06:23:49;7.38;;;6.78;;
15159;SDS011;7680;48.800;9.680;2023-06-22T06:26:22;7.35;;;6.75;;
15159;SDS011;7680;48.800;9.680;2023-06-22T06:29:00;7.03;;;6.43;;
15159;SDS011;7680;48.800;9.680;2023-06-22T06:31:34;7.35;;;6.65;;
15159;SDS011;7680;48.800;9.680;2023-06-22T06:34:07;6.90;;;6.30;;
15159;SDS011;7680;48.800;9.680;2023-06-22T06:36:40;6.35;;;5.72;;
15159;SDS011;7680;48.800;9.680;2023-06-22T06:39:15;6.78;;;6.07;;
15159;SDS011;7680;48.800;9.680;2023-06-22T06:41:48;6.50;;;5.90;;
15159;SDS011;7680;48.800;9.680;2023-06-22T06:44:21;6.72;;;6.10;;
15159;SDS011;7680;48.800;9.680;2023-06-22T06:46:54;7.05;;;6.05;;
15159;SDS011;7680;48.800;9.680;2023-06-22T06:49:27;7.53;;;5.75;;
15159;SDS011;7680;48.800;9.680;2023-06-22T06:52:00;6.10;;;5.50;;
15159;SDS011;7680;48.800;9.680;2023-06-22T06:54:35;6.78;;;5.85;;
15159;SDS011;7680;48.800;9.680;2023-06-22T06:57:08;5.70;;;5.20;;
15159;SDS011;7680;48.800;9.680;2023-06-22T06:59:44;6.47;;;5.85;;
15159;SDS011;7680;48.800;9.680;2023-06-22T07:02:17;6.53;;;5.55;;
15159;SDS011;7680;48.800;9.680;2023-06-22T07:04:51;6.25;;;5.40;;
15159;SDS011;7680;48.800;9.680;2023-06-22T07:07:26;7.30;;;5.25;;
15159;SDS011;7680;48.800;9.680;2023-06-22T07:10:00;7.40;;;5.68;;
15159;SDS011;7680;48.800;9.680;2023-06-22T07:12:36;6.07;;;5.50;;
15159;SDS011;7680;48.800;9.680;2023-06-22T07:15:09;5.82;;;5.28;;
15159;SDS011;7680;48.800;9.680;2023-06-22T07:17:44;6.30;;;5.68;;
15159;SDS011;7680;48.800;9.680;2023-06-22T07:20:17;6.63;;;5.40;;
15159;SDS011;7680;48.800;9.680;2023-06-22T07:22:51;6.50;;;5.80;;
15159;SDS011;7680;48.800;9.680;2023-06-22T07:25:25;5.50;;;5.00;;
15159;SDS011;7680;48.800;9.680;2023-06-22T07:27:59;6.35;;;4.88;;
15159;SDS011;7680;48.800;9.680;2023-06-22T07:30:34;5.97;;;5.28;;
15159;SDS011;7680;48.800;9.680;2023-06-22T07:33:07;6.35;;;5.13;;
15159;SDS011;7680;48.800;9.680;2023-06-22T07:35:41;5.88;;;5.38;;
15159;SDS011;7680;48.800;9.680;2023-06-22T07:38:14;5.65;;;5.03;;
15159;SDS011;7680;48.800;9.680;2023-06-22T07:40:48;6.03;;;4.32;;
15159;SDS011;7680;48.800;9.680;2023-06-22T07:43:24;5.55;;;4.72;;
15159;SDS011;7680;48.800;9.680;2023-06-22T07:45:57;4.80;;;4.40;;
15159;SDS011;7680;48.800;9.680;2023-06-22T07:48:30;6.93;;;4.60;;
15159;SDS011;7680;48.800;9.680;2023-06-22T07:51:04;6.00;;;4.45;;
15159;SDS011;7680;48.800;9.680;2023-06-22T07:53:39;5.88;;;4.55;;
15159;SDS011;7680;48.800;9.680;2023-06-22T07:56:14;4.97;;;4.40;;
15159;SDS011;7680;48.800;9.680;2023-06-22T07:58:50;7.75;;;4.70;;
15159;SDS011;7680;48.800;9.680;2023-06-22T08:01:24;5.88;;;4.15;;
15159;SDS011;7680;48.800;9.680;2023-06-22T08:03:57;6.60;;;4.63;;
15159;SDS011;7680;48.800;9.680;2023-06-22T08:06:30;6.53;;;4.63;;
15159;SDS011;7680;48.800;9.680;2023-06-22T08:09:03;7.80;;;4.38;;
15159;SDS011;7680;48.800;9.680;2023-06-22T08:11:38;7.75;;;4.30;;
15159;SDS011;7680;48.800;9.680;2023-06-22T08:14:11;6.50;;;4.40;;
15159;SDS011;7680;48.800;9.680;2023-06-22T08:16:44;5.85;;;4.22;;
15159;SDS011;7680;48.800;9.680;2023-06-22T08:19:17;5.95;;;4.20;;
15159;SDS011;7680;48.800;9.680;2023-06-22T08:21:50;5.55;;;4.10;;
15159;SDS011;7680;48.800;9.680;2023-06-22T08:24:23;5.63;;;3.92;;
15159;SDS011;7680;48.800;9.680;2023-06-22T08:26:58;6.25;;;4.07;;
15159;SDS011;7680;48.800;9.680;2023-06-22T08:29:31;5.20;;;4.50;;
15159;SDS011;7680;48.800;9.680;2023-06-22T08:32:04;6.93;;;4.55;;
15159;SDS011;7680;48.800;9.680;2023-06-22T08:34:38;6.68;;;4.63;;
15159;SDS011;7680;48.800;9.680;2023-06-22T08:37:13;4.72;;;3.72;;
15159;SDS011;7680;48.800;9.680;2023-06-22T08:39:46;6.50;;;4.50;;
15159;SDS011;7680;48.800;9.680;2023-06-22T08:42:21;7.90;;;4.90;;
15159;SDS011;7680;48.800;9.680;2023-06-22T08:44:55;7.63;;;5.10;;
15159;SDS011;7680;48.800;9.680;2023-06-22T08:47:28;6.85;;;4.50;;
15159;SDS011;7680;48.800;9.680;2023-06-22T08:50:01;8.05;;;4.85;;
15159;SDS011;7680;48.800;9.680;2023-06-22T08:52:35;5.53;;;4.40;;
15159;SDS011;7680;48.800;9.680;2023-06-22T08:55:09;7.97;;;4.72;;
15159;SDS011;7680;48.800;9.680;2023-06-22T08:57:44;6.80;;;4.70;;
15159;SDS011;7680;48.800;9.680;2023-06-22T09:00:17;9.55;;;5.22;;
15159;SDS011;7680;48.800;9.680;2023-06-22T09:02:52;9.05;;;5.60;;
15159;SDS011;7680;48.800;9.680;2023-06-22T09:05:27;8.45;;;5.43;;
15159;SDS011;7680;48.800;9.680;2023-06-22T09:08:01;9.23;;;5.13;;
15159;SDS011;7680;48.800;9.680;2023-06-22T09:10:34;8.48;;;5.15;;
15159;SDS011;7680;48.800;9.680;2023-06-22T09:13:08;7.10;;;5.30;;
15159;SDS011;7680;48.800;9.680;2023-06-22T09:15:42;8.82;;;5.20;;
15159;SDS011;7680;48.800;9.680;2023-06-22T09:18:15;8.75;;;5.30;;
15159;SDS011;7680;48.800;9.680;2023-06-22T09:20:48;8.82;;;5.20;;
15159;SDS011;7680;48.800;9.680;2023-06-22T09:23:21;6.65;;;4.85;;
15159;SDS011;7680;48.800;9.680;2023-06-22T09:25:54;9.88;;;5.15;;
15159;SDS011;7680;48.800;9.680;2023-06-22T09:28:29;6.55;;;4.97;;
15159;SDS011;7680;48.800;9.680;2023-06-22T09:31:02;7.95;;;5.00;;
15159;SDS011;7680;48.800;9.680;2023-06-22T09:33:35;6.68;;;5.18;;
15159;SDS011;7680;48.800;9.680;2023-06-22T09:36:09;9.55;;;4.97;;
15159;SDS011;7680;48.800;9.680;2023-06-22T09:38:42;10.52;;;5.28;;
15159;SDS011;7680;48.800;9.680;2023-06-22T09:41:15;7.10;;;4.85;;
15159;SDS011;7680;48.800;9.680;2023-06-22T09:43:49;7.65;;;5.97;;
15159;SDS011;7680;48.800;9.680;2023-06-22T09:46:26;8.32;;;5.00;;
15159;SDS011;7680;48.800;9.680;2023-06-22T09:49:00;8.20;;;5.15;;
15159;SDS011;7680;48.800;9.680;2023-06-22T09:51:33;7.93;;;5.07;;
15159;SDS011;7680;48.800;9.680;2023-06-22T09:54:06;10.13;;;5.65;;
15159;SDS011;7680;48.800;9.680;2023-06-22T09:56:39;9.00;;;5.55;;
15159;SDS011;7680;48.800;9.680;2023-06-22T09:59:13;6.82;;;5.50;;
15159;SDS011;7680;48.800;9.680;2023-06-22T10:01:49;8.80;;;5.90;;
15159;SDS011;7680;48.800;9.680;2023-06-22T10:04:22;8.77;;;5.85;;
15159;SDS011;7680;48.800;9.680;2023-06-22T10:06:56;10.02;;;5.72;;
15159;SDS011;7680;48.800;9.680;2023-06-22T10:09:29;10.32;;;6.28;;
15159;SDS011;7680;48.800;9.680;2023-06-22T10:12:02;11.02;;;5.95;;
15159;SDS011;7680;48.800;9.680;2023-06-22T10:14:37;9.73;;;6.20;;
15159;SDS011;7680;48.800;9.680;2023-06-22T10:17:10;7.55;;;5.65;;
15159;SDS011;7680;48.800;9.680;2023-06-22T10:19:43;9.45;;;6.68;;
15159;SDS011;7680;48.800;9.680;2023-06-22T10:22:17;9.00;;;6.07;;
15159;SDS011;7680;48.800;9.680;2023-06-22T10:24:50;9.73;;;6.65;;
15159;SDS011;7680;48.800;9.680;2023-06-22T10:27:23;9.57;;;6.10;;
15159;SDS011;7680;48.800;9.680;2023-06-22T10:29:57;7.50;;;6.20;;
15159;SDS011;7680;48.800;9.680;2023-06-22T10:32:31;10.77;;;6.03;;
15159;SDS011;7680;48.800;9.680;2023-06-22T10:35:04;9.38;;;6.30;;
15159;SDS011;7680;48.800;9.680;2023-06-22T10:37:38;9.93;;;6.65;;
15159;SDS011;7680;48.800;9.680;2023-06-22T10:40:14;9.48;;;6.32;;
15159;SDS011;7680;48.800;9.680;2023-06-22T10:42:50;9.15;;;6.30;;
15159;SDS011;7680;48.800;9.680;2023-06-22T10:45:24;10.70;;;6.20;;
15159;SDS011;7680;48.800;9.680;2023-06-22T10:47:59;10.95;;;6.72;;
15159;SDS011;7680;48.800;9.680;2023-06-22T10:50:32;8.95;;;6.78;;
15159;SDS011;7680;48.800;9.680;2023-06-22T10:53:05;9.10;;;6.30;;
15159;SDS011;7680;48.800;9.680;2023-06-22T10:55:38;10.77;;;6.22;;
15159;SDS011;7680;48.800;9.680;2023-06-22T10:58:17;7.78;;;6.15;;
15159;SDS011;7680;48.800;9.680;2023-06-22T11:00:52;9.98;;;6.55;;
15159;SDS011;7680;48.800;9.680;2023-06-22T11:03:25;10.00;;;6.63;;
15159;SDS011;7680;48.800;9.680;2023-06-22T11:05:59;8.75;;;6.65;;
15159;SDS011;7680;48.800;9.680;2023-06-22T11:08:32;7.38;;;6.18;;
15159;SDS011;7680;48.800;9.680;2023-06-22T11:11:05;11.35;;;6.18;;
15159;SDS011;7680;48.800;9.680;2023-06-22T11:13:38;9.23;;;7.03;;
15159;SDS011;7680;48.800;9.680;2023-06-22T11:16:13;13.63;;;6.93;;
15159;SDS011;7680;48.800;9.680;2023-06-22T11:18:47;9.90;;;7.38;;
15159;SDS011;7680;48.800;9.680;2023-06-22T11:21:20;12.25;;;6.85;;
15159;SDS011;7680;48.800;9.680;2023-06-22T11:23:53;9.18;;;6.60;;
15159;SDS011;7680;48.800;9.680;2023-06-22T11:26:26;8.85;;;6.32;;
15159;SDS011;7680;48.800;9.680;2023-06-22T11:29:00;9.70;;;6.97;;
15159;SDS011;7680;48.800;9.680;2023-06-22T11:31:37;10.73;;;6.95;;
15159;SDS011;7680;48.800;9.680;2023-06-22T11:34:11;8.13;;;6.60;;
15159;SDS011;7680;48.800;9.680;2023-06-22T11:36:44;9.85;;;6.68;;
15159;SDS011;7680;48.800;9.680;2023-06-22T11:39:19;8.98;;;6.25;;
15159;SDS011;7680;48.800;9.680;2023-06-22T11:42:09;9.38;;;6.35;;
15159;SDS011;7680;48.800;9.680;2023-06-22T11:44:42;9.57;;;6.60;;
15159;SDS011;7680;48.800;9.680;2023-06-22T11:47:17;9.32;;;6.63;;
15159;SDS011;7680;48.800;9.680;2023-06-22T11:49:50;9.43;;;6.35;;
15159;SDS011;7680;48.800;9.680;2023-06-22T11:52:24;8.38;;;6.07;;
15159;SDS011;7680;48.800;9.680;2023-06-22T11:54:58;8.43;;;6.65;;
15159;SDS011;7680;48.800;9.680;2023-06-22T11:57:35;10.70;;;6.72;;
15159;SDS011;7680;48.800;9.680;2023-06-22T12:00:09;9.68;;;6.35;;
15159;SDS011;7680;48.800;9.680;2023-06-22T12:02:48;9.77;;;6.70;;
15159;SDS011;7680;48.800;9.680;2023-06-22T12:05:22;11.20;;;6.63;;
15159;SDS011;7680;48.800;9.680;2023-06-22T12:07:56;7.72;;;6.70;;
15159;SDS011;7680;48.800;9.680;2023-06-22T12:10:29;11.45;;;6.95;;
15159;SDS011;7680;48.800;9.680;2023-06-22T12:13:03;9.55;;;6.82;;
15159;SDS011;7680;48.800;9.680;2023-06-22T12:15:36;12.48;;;7.03;;
15159;SDS011;7680;48.800;9.680;2023-06-22T12:18:10;9.70;;;6.40;;
15159;SDS011;7680;48.800;9.680;2023-06-22T12:20:45;10.55;;;7.13;;
15159;SDS011;7680;48.800;9.680;2023-06-22T12:23:19;9.90;;;7.53;;
15159;SDS011;7680;48.800;9.680;2023-06-22T12:25:52;10.75;;;7.30;;
15159;SDS011;7680;48.800;9.680;2023-06-22T12:28:25;10.93;;;7.22;;
15159;SDS011;7680;48.800;9.680;2023-06-22T12:30:58;12.55;;;7.95;;
15159;SDS011;7680;48.800;9.680;2023-06-22T12:33:33;10.45;;;7.30;;
15159;SDS011;7680;48.800;9.680;2023-06-22T12:36:06;9.60;;;6.68;;
15159;SDS011;7680;48.800;9.680;2023-06-22T12:38:39;11.40;;;7.22;;
15159;SDS011;7680;48.800;9.680;2023-06-22T12:41:12;9.45;;;7.35;;
15159;SDS011;7680;48.800;9.680;2023-06-22T12:43:46;10.63;;;7.03;;
15159;SDS011;7680;48.800;9.680;2023-06-22T12:46:19;9.45;;;6.72;;
15159;SDS011;7680;48.800;9.680;2023-06-22T12:48:53;9.73;;;6.53;;
15159;SDS011;7680;48.800;9.680;2023-06-22T12:51:26;12.77;;;6.68;;
15159;SDS011;7680;48.800;9.680;2023-06-22T12:54:00;12.18;;;7.43;;
15159;SDS011;7680;48.800;9.680;2023-06-22T12:56:33;9.82;;;6.53;;
15159;SDS011;7680;48.800;9.680;2023-06-22T12:59:06;13.15;;;7.05;;
15159;SDS011;7680;48.800;9.680;2023-06-22T13:01:39;11.23;;;7.18;;
15159;SDS011;7680;48.800;9.680;2023-06-22T13:04:14;9.32;;;6.85;;
15159;SDS011;7680;48.800;9.680;2023-06-22T13:06:47;10.35;;;7.30;;
15159;SDS011;7680;48.800;9.680;2023-06-22T13:09:22;13.30;;;7.50;;
15159;SDS011;7680;48.800;9.680;2023-06-22T13:11:55;12.35;;;7.13;;
15159;SDS011;7680;48.800;9.680;2023-06-22T13:14:28;11.48;;;6.80;;
15159;SDS011;7680;48.800;9.680;2023-06-22T13:17:01;13.13;;;7.47;;
15159;SDS011;7680;48.800;9.680;2023-06-22T13:19:36;11.65;;;7.28;;
15159;SDS011;7680;48.800;9.680;2023-06-22T13:22:25;12.32;;;7.57;;
15159;SDS011;7680;48.800;9.680;2023-06-22T13:25:02;9.18;;;7.45;;
15159;SDS011;7680;48.800;9.680;2023-06-22T13:27:35;8.70;;;7.13;;
15159;SDS011;7680;48.800;9.680;2023-06-22T13:30:09;9.90;;;7.00;;
15159;SDS011;7680;48.800;9.680;2023-06-22T13:32:45;12.68;;;7.38;;
15159;SDS011;7680;48.800;9.680;2023-06-22T13:35:20;13.32;;;7.07;;
15159;SDS011;7680;48.800;9.680;2023-06-22T13:37:53;11.38;;;7.00;;
15159;SDS011;7680;48.800;9.680;2023-06-22T13:40:26;11.23;;;7.03;;
15159;SDS011;7680;48.800;9.680;2023-06-22T13:42:59;10.65;;;6.88;;
15159;SDS011;7680;48.800;9.680;2023-06-22T13:45:32;10.95;;;6.65;;
15159;SDS011;7680;48.800;9.680;2023-06-22T13:48:06;10.27;;;6.97;;
15159;SDS011;7680;48.800;9.680;2023-06-22T13:50:40;10.85;;;6.43;;
15159;SDS011;7680;48.800;9.680;2023-06-22T13:53:13;8.50;;;5.90;;
15159;SDS011;7680;48.800;9.680;2023-06-22T13:55:47;9.50;;;6.45;;
15159;SDS011;7680;48.800;9.680;2023-06-22T13:58:20;10.18;;;6.43;;
15159;SDS011;7680;48.800;9.680;2023-06-22T14:00:53;11.27;;;6.55;;
15159;SDS011;7680;48.800;9.680;2023-06-22T14:03:27;10.13;;;6.57;;
15159;SDS011;7680;48.800;9.680;2023-06-22T14:06:01;9.80;;;6.80;;
15159;SDS011;7680;48.800;9.680;2023-06-22T14:08:35;11.25;;;6.70;;
15159;SDS011;7680;48.800;9.680;2023-06-22T14:11:12;10.45;;;6.30;;
15159;SDS011;7680;48.800;9.680;2023-06-22T14:13:45;12.52;;;6.75;;
15159;SDS011;7680;48.800;9.680;2023-06-22T14:16:19;9.98;;;6.07;;
15159;SDS011;7680;48.800;9.680;2023-06-22T14:18:52;12.00;;;6.65;;
15159;SDS011;7680;48.800;9.680;2023-06-22T14:21:29;10.43;;;6.40;;
15159;SDS011;7680;48.800;9.680;2023-06-22T14:24:03;11.32;;;6.70;;
15159;SDS011;7680;48.800;9.680;2023-06-22T14:26:36;10.18;;;6.03;;
15159;SDS011;7680;48.800;9.680;2023-06-22T14:29:10;8.35;;;6.13;;
15159;SDS011;7680;48.800;9.680;2023-06-22T14:31:44;10.55;;;6.15;;
15159;SDS011;7680;48.800;9.680;2023-06-22T14:34:18;10.77;;;6.43;;
15159;SDS011;7680;48.800;9.680;2023-06-22T14:36:52;9.15;;;6.25;;
15159;SDS011;7680;48.800;9.680;2023-06-22T14:39:26;10.48;;;6.70;;
15159;SDS011;7680;48.800;9.680;2023-06-22T14:41:59;8.93;;;5.95;;
15159;SDS011;7680;48.800;9.680;2023-06-22T14:44:32;10.98;;;6.13;;
15159;SDS011;7680;48.800;9.680;2023-06-22T14:47:06;10.13;;;5.57;;
15159;SDS011;7680;48.800;9.680;2023-06-22T14:49:40;11.48;;;5.57;;
15159;SDS011;7680;48.800;9.680;2023-06-22T14:52:14;9.65;;;5.75;;
15159;SDS011;7680;48.800;9.680;2023-06-22T14:54:47;12.77;;;5.80;;
15159;SDS011;7680;48.800;9.680;2023-06-22T14:57:23;12.15;;;5.78;;
15159;SDS011;7680;48.800;9.680;2023-06-22T14:59:56;11.38;;;5.53;;
15159;SDS011;7680;48.800;9.680;2023-06-22T15:02:30;8.68;;;5.40;;
15159;SDS011;7680;48.800;9.680;2023-06-22T15:05:03;10.57;;;5.60;;
15159;SDS011;7680;48.800;9.680;2023-06-22T15:07:39;10.45;;;5.80;;
15159;SDS011;7680;48.800;9.680;2023-06-22T15:10:13;9.82;;;5.47;;
15159;SDS011;7680;48.800;9.680;2023-06-22T15:12:47;10.38;;;6.13;;
15159;SDS011;7680;48.800;9.680;2023-06-22T15:15:20;13.25;;;6.13;;
15159;SDS011;7680;48.800;9.680;2023-06-22T15:17:53;8.88;;;5.55;;
15159;SDS011;7680;48.800;9.680;2023-06-22T15:20:26;8.77;;;6.18;;
15159;SDS011;7680;48.800;9.680;2023-06-22T15:23:01;10.55;;;5.93;;
15159;SDS011;7680;48.800;9.680;2023-06-22T15:25:34;9.57;;;5.97;;
15159;SDS011;7680;48.800;9.680;2023-06-22T15:28:10;9.93;;;5.25;;
15159;SDS011;7680;48.800;9.680;2023-06-22T15:30:43;11.20;;;5.43;;